sensor_id;sensor_type;location;lat;lon;timestamp;P1;durP1;ratioP1;P2;durP2;ratioP2
6665;SDS011;3369;49.906;8.598;2023-08-01T00:00:47;5.77;;;4.20;;
6665;SDS011;3369;49.906;8.598;2023-08-01T00:03:13;5.27;;;4.17;;
6665;SDS011;3369;49.906;8.598;2023-08-01T00:05:39;4.93;;;4.27;;
6665;SDS011;3369;49.906;8.598;2023-08-01T00:08:09;7.40;;;4.70;;
6665;SDS011;3369;49.906;8.598;2023-08-01T00:10:37;8.97;;;4.73;;
6665;SDS011;3369;49.906;8.598;2023-08-01T00:13:02;7.23;;;4.93;;
6665;SDS011;3369;49.906;8.598;2023-08-01T00:15:28;6.93;;;4.37;;
6665;SDS011;3369;49.906;8.598;2023-08-01T00:17:53;6.03;;;4.50;;
6665;SDS011;3369;49.906;8.598;2023-08-01T00:20:19;9.03;;;5.10;;
6665;SDS011;3369;49.906;8.598;2023-08-01T00:22:45;8.70;;;4.97;;
6665;SDS011;3369;49.906;8.598;2023-08-01T00:25:10;6.53;;;4.67;;
6665;SDS011;3369;49.906;8.598;2023-08-01T00:27:36;5.60;;;4.50;;
6665;SDS011;3369;49.906;8.598;2023-08-01T00:30:01;7.70;;;4.40;;
6665;SDS011;3369;49.906;8.598;2023-08-01T00:32:27;5.70;;;4.83;;
6665;SDS011;3369;49.906;8.598;2023-08-01T00:34:53;6.67;;;4.20;;
6665;SDS011;3369;49.906;8.598;2023-08-01T00:37:18;8.10;;;4.77;;
6665;SDS011;3369;49.906;8.598;2023-08-01T00:39:44;7.13;;;4.50;;
6665;SDS011;3369;49.906;8.598;2023-08-01T00:42:09;8.23;;;4.53;;
6665;SDS011;3369;49.906;8.598;2023-08-01T00:44:35;8.40;;;4.97;;
6665;SDS011;3369;49.906;8.598;2023-08-01T00:47:01;6.00;;;4.87;;
6665;SDS011;3369;49.906;8.598;2023-08-01T00:49:26;8.07;;;4.63;;
6665;SDS011;3369;49.906;8.598;2023-08-01T00:51:52;4.80;;;4.30;;
6665;SDS011;3369;49.906;8.598;2023-08-01T00:54:18;7.07;;;4.60;;
6665;SDS011;3369;49.906;8.598;2023-08-01T00:56:43;7.33;;;4.60;;
6665;SDS011;3369;49.906;8.598;2023-08-01T00:59:11;7.80;;;5.27;;
6665;SDS011;3369;49.906;8.598;2023-08-01T01:01:38;7.87;;;5.90;;
6665;SDS011;3369;49.906;8.598;2023-08-01T01:04:03;7.87;;;5.30;;
6665;SDS011;3369;49.906;8.598;2023-08-01T01:09:15;9.07;;;5.30;;
6665;SDS011;3369;49.906;8.598;2023-08-01T01:11:41;7.60;;;5.47;;
6665;SDS011;3369;49.906;8.598;2023-08-01T01:14:07;11.50;;;6.00;;
6665;SDS011;3369;49.906;8.598;2023-08-01T01:16:32;11.77;;;5.43;;
6665;SDS011;3369;49.906;8.598;2023-08-01T01:18:58;7.13;;;5.20;;
6665;SDS011;3369;49.906;8.598;2023-08-01T01:21:23;6.87;;;5.00;;
6665;SDS011;3369;49.906;8.598;2023-08-01T01:23:49;8.47;;;5.50;;
6665;SDS011;3369;49.906;8.598;2023-08-01T01:26:16;9.47;;;5.70;;
6665;SDS011;3369;49.906;8.598;2023-08-01T01:28:47;6.40;;;5.27;;
6665;SDS011;3369;49.906;8.598;2023-08-01T01:31:13;8.33;;;6.00;;
6665;SDS011;3369;49.906;8.598;2023-08-01T01:33:40;9.37;;;5.90;;
6665;SDS011;3369;49.906;8.598;2023-08-01T01:36:06;9.93;;;6.63;;
6665;SDS011;3369;49.906;8.598;2023-08-01T01:38:31;9.57;;;6.03;;
6665;SDS011;3369;49.906;8.598;2023-08-01T01:40:57;8.37;;;5.67;;
6665;SDS011;3369;49.906;8.598;2023-08-01T01:43:22;6.87;;;5.30;;
6665;SDS011;3369;49.906;8.598;2023-08-01T01:45:48;10.43;;;5.47;;
6665;SDS011;3369;49.906;8.598;2023-08-01T01:48:14;8.20;;;5.77;;
6665;SDS011;3369;49.906;8.598;2023-08-01T01:50:39;8.23;;;5.20;;
6665;SDS011;3369;49.906;8.598;2023-08-01T01:53:05;9.87;;;5.60;;
6665;SDS011;3369;49.906;8.598;2023-08-01T01:55:30;7.40;;;5.30;;
6665;SDS011;3369;49.906;8.598;2023-08-01T01:57:56;11.20;;;5.23;;
6665;SDS011;3369;49.906;8.598;2023-08-01T02:00:21;7.60;;;5.37;;
6665;SDS011;3369;49.906;8.598;2023-08-01T02:02:47;11.20;;;6.07;;
6665;SDS011;3369;49.906;8.598;2023-08-01T02:05:12;8.93;;;5.70;;
6665;SDS011;3369;49.906;8.598;2023-08-01T02:07:38;7.63;;;4.90;;
6665;SDS011;3369;49.906;8.598;2023-08-01T02:10:04;5.90;;;5.30;;
6665;SDS011;3369;49.906;8.598;2023-08-01T02:12:30;10.00;;;5.87;;
6665;SDS011;3369;49.906;8.598;2023-08-01T02:14:57;8.90;;;5.63;;
6665;SDS011;3369;49.906;8.598;2023-08-01T02:17:23;9.27;;;5.67;;
6665;SDS011;3369;49.906;8.598;2023-08-01T02:19:49;7.93;;;5.27;;
6665;SDS011;3369;49.906;8.598;2023-08-01T02:22:14;9.57;;;5.30;;
6665;SDS011;3369;49.906;8.598;2023-08-01T02:24:40;7.77;;;5.27;;
6665;SDS011;3369;49.906;8.598;2023-08-01T02:27:05;12.07;;;5.67;;
6665;SDS011;3369;49.906;8.598;2023-08-01T02:29:31;6.17;;;5.47;;
6665;SDS011;3369;49.906;8.598;2023-08-01T02:31:56;7.10;;;5.73;;
6665;SDS011;3369;49.906;8.598;2023-08-01T02:34:22;6.70;;;5.77;;
6665;SDS011;3369;49.906;8.598;2023-08-01T02:36:48;7.20;;;5.10;;
6665;SDS011;3369;49.906;8.598;2023-08-01T02:39:13;11.40;;;5.63;;
6665;SDS011;3369;49.906;8.598;2023-08-01T02:41:39;8.20;;;5.20;;
6665;SDS011;3369;49.906;8.598;2023-08-01T02:44:04;6.20;;;4.47;;
6665;SDS011;3369;49.906;8.598;2023-08-01T02:46:30;8.43;;;4.97;;
6665;SDS011;3369;49.906;8.598;2023-08-01T02:48:56;6.43;;;5.17;;
6665;SDS011;3369;49.906;8.598;2023-08-01T02:51:22;7.27;;;5.53;;
6665;SDS011;3369;49.906;8.598;2023-08-01T02:53:47;6.77;;;5.23;;
6665;SDS011;3369;49.906;8.598;2023-08-01T02:56:13;7.20;;;5.00;;
6665;SDS011;3369;49.906;8.598;2023-08-01T02:58:38;10.87;;;4.97;;
6665;SDS011;3369;49.906;8.598;2023-08-01T03:01:07;11.43;;;5.20;;
6665;SDS011;3369;49.906;8.598;2023-08-01T03:03:38;7.07;;;4.63;;
6665;SDS011;3369;49.906;8.598;2023-08-01T03:06:04;5.70;;;4.77;;
6665;SDS011;3369;49.906;8.598;2023-08-01T03:08:30;6.10;;;5.17;;
6665;SDS011;3369;49.906;8.598;2023-08-01T03:10:55;7.83;;;5.33;;
6665;SDS011;3369;49.906;8.598;2023-08-01T03:13:21;8.80;;;4.70;;
6665;SDS011;3369;49.906;8.598;2023-08-01T03:15:47;7.53;;;4.90;;
6665;SDS011;3369;49.906;8.598;2023-08-01T03:18:13;6.07;;;4.90;;
6665;SDS011;3369;49.906;8.598;2023-08-01T03:20:38;8.70;;;4.70;;
6665;SDS011;3369;49.906;8.598;2023-08-01T03:23:04;5.40;;;4.43;;
6665;SDS011;3369;49.906;8.598;2023-08-01T03:25:30;5.40;;;4.80;;
6665;SDS011;3369;49.906;8.598;2023-08-01T03:27:56;7.67;;;4.70;;
6665;SDS011;3369;49.906;8.598;2023-08-01T03:30:22;6.13;;;4.60;;
6665;SDS011;3369;49.906;8.598;2023-08-01T03:32:48;7.20;;;4.43;;
6665;SDS011;3369;49.906;8.598;2023-08-01T03:35:13;6.03;;;4.80;;
6665;SDS011;3369;49.906;8.598;2023-08-01T03:37:39;6.03;;;4.20;;
6665;SDS011;3369;49.906;8.598;2023-08-01T03:40:06;6.30;;;4.70;;
6665;SDS011;3369;49.906;8.598;2023-08-01T03:42:35;8.67;;;5.33;;
6665;SDS011;3369;49.906;8.598;2023-08-01T03:45:01;9.70;;;5.27;;
6665;SDS011;3369;49.906;8.598;2023-08-01T03:47:27;8.70;;;5.23;;
6665;SDS011;3369;49.906;8.598;2023-08-01T03:49:53;8.43;;;4.93;;
6665;SDS011;3369;49.906;8.598;2023-08-01T03:52:19;5.87;;;4.70;;
6665;SDS011;3369;49.906;8.598;2023-08-01T03:54:44;7.07;;;4.63;;
6665;SDS011;3369;49.906;8.598;2023-08-01T03:57:11;9.20;;;5.33;;
6665;SDS011;3369;49.906;8.598;2023-08-01T03:59:36;9.57;;;5.23;;
6665;SDS011;3369;49.906;8.598;2023-08-01T04:02:02;9.80;;;5.07;;
6665;SDS011;3369;49.906;8.598;2023-08-01T04:04:28;6.43;;;4.97;;
6665;SDS011;3369;49.906;8.598;2023-08-01T04:06:55;7.60;;;5.13;;
6665;SDS011;3369;49.906;8.598;2023-08-01T04:09:20;7.20;;;4.80;;
6665;SDS011;3369;49.906;8.598;2023-08-01T04:11:46;7.73;;;5.00;;
6665;SDS011;3369;49.906;8.598;2023-08-01T04:14:11;7.40;;;4.70;;
6665;SDS011;3369;49.906;8.598;2023-08-01T04:16:37;10.50;;;5.83;;
6665;SDS011;3369;49.906;8.598;2023-08-01T04:19:02;6.60;;;5.00;;
6665;SDS011;3369;49.906;8.598;2023-08-01T04:21:28;7.47;;;5.40;;
6665;SDS011;3369;49.906;8.598;2023-08-01T04:23:54;8.00;;;4.83;;
6665;SDS011;3369;49.906;8.598;2023-08-01T04:26:19;6.87;;;4.77;;
6665;SDS011;3369;49.906;8.598;2023-08-01T04:28:45;7.10;;;5.23;;
6665;SDS011;3369;49.906;8.598;2023-08-01T04:31:14;7.60;;;5.50;;
6665;SDS011;3369;49.906;8.598;2023-08-01T04:33:40;8.07;;;5.50;;
6665;SDS011;3369;49.906;8.598;2023-08-01T04:36:05;7.80;;;4.90;;
6665;SDS011;3369;49.906;8.598;2023-08-01T04:38:31;6.73;;;4.87;;
6665;SDS011;3369;49.906;8.598;2023-08-01T04:40:57;7.33;;;4.63;;
6665;SDS011;3369;49.906;8.598;2023-08-01T04:43:22;10.13;;;4.97;;
6665;SDS011;3369;49.906;8.598;2023-08-01T04:45:48;9.23;;;5.17;;
6665;SDS011;3369;49.906;8.598;2023-08-01T04:48:13;5.67;;;4.07;;
6665;SDS011;3369;49.906;8.598;2023-08-01T04:50:39;7.13;;;5.13;;
6665;SDS011;3369;49.906;8.598;2023-08-01T04:53:05;6.70;;;5.10;;
6665;SDS011;3369;49.906;8.598;2023-08-01T04:55:31;8.73;;;4.70;;
6665;SDS011;3369;49.906;8.598;2023-08-01T04:57:57;6.70;;;4.60;;
6665;SDS011;3369;49.906;8.598;2023-08-01T05:00:22;5.83;;;5.03;;
6665;SDS011;3369;49.906;8.598;2023-08-01T05:02:48;8.20;;;5.10;;
6665;SDS011;3369;49.906;8.598;2023-08-01T05:05:14;7.47;;;5.13;;
6665;SDS011;3369;49.906;8.598;2023-08-01T05:07:41;7.70;;;5.13;;
6665;SDS011;3369;49.906;8.598;2023-08-01T05:10:06;7.20;;;4.53;;
6665;SDS011;3369;49.906;8.598;2023-08-01T05:12:32;5.83;;;4.23;;
6665;SDS011;3369;49.906;8.598;2023-08-01T05:14:58;7.57;;;4.60;;
6665;SDS011;3369;49.906;8.598;2023-08-01T05:17:24;4.97;;;4.47;;
6665;SDS011;3369;49.906;8.598;2023-08-01T05:19:49;7.50;;;4.97;;
6665;SDS011;3369;49.906;8.598;2023-08-01T05:22:15;6.87;;;4.50;;
6665;SDS011;3369;49.906;8.598;2023-08-01T05:24:41;6.63;;;4.17;;
6665;SDS011;3369;49.906;8.598;2023-08-01T05:27:06;6.70;;;4.83;;
6665;SDS011;3369;49.906;8.598;2023-08-01T05:29:32;8.47;;;5.13;;
6665;SDS011;3369;49.906;8.598;2023-08-01T05:31:57;6.50;;;4.63;;
6665;SDS011;3369;49.906;8.598;2023-08-01T05:34:23;8.33;;;5.50;;
6665;SDS011;3369;49.906;8.598;2023-08-01T05:36:48;8.57;;;5.20;;
6665;SDS011;3369;49.906;8.598;2023-08-01T05:39:15;5.67;;;5.17;;
6665;SDS011;3369;49.906;8.598;2023-08-01T05:41:41;5.60;;;5.00;;
6665;SDS011;3369;49.906;8.598;2023-08-01T05:44:07;6.97;;;5.90;;
6665;SDS011;3369;49.906;8.598;2023-08-01T05:46:33;6.70;;;5.43;;
6665;SDS011;3369;49.906;8.598;2023-08-01T05:48:58;6.97;;;5.43;;
6665;SDS011;3369;49.906;8.598;2023-08-01T05:51:24;5.93;;;4.90;;
6665;SDS011;3369;49.906;8.598;2023-08-01T05:53:50;7.43;;;5.27;;
6665;SDS011;3369;49.906;8.598;2023-08-01T05:56:15;6.03;;;4.47;;
6665;SDS011;3369;49.906;8.598;2023-08-01T05:58:41;6.63;;;4.80;;
6665;SDS011;3369;49.906;8.598;2023-08-01T06:01:07;6.87;;;4.73;;
6665;SDS011;3369;49.906;8.598;2023-08-01T06:03:34;6.40;;;5.27;;
6665;SDS011;3369;49.906;8.598;2023-08-01T06:05:59;6.57;;;4.77;;
6665;SDS011;3369;49.906;8.598;2023-08-01T06:08:25;6.57;;;4.80;;
6665;SDS011;3369;49.906;8.598;2023-08-01T06:10:51;7.70;;;5.37;;
6665;SDS011;3369;49.906;8.598;2023-08-01T06:13:16;7.53;;;5.07;;
6665;SDS011;3369;49.906;8.598;2023-08-01T06:15:42;8.07;;;6.03;;
6665;SDS011;3369;49.906;8.598;2023-08-01T06:18:07;6.07;;;5.37;;
6665;SDS011;3369;49.906;8.598;2023-08-01T06:20:33;5.90;;;4.83;;
6665;SDS011;3369;49.906;8.598;2023-08-01T06:22:59;6.33;;;5.33;;
6665;SDS011;3369;49.906;8.598;2023-08-01T06:25:24;5.37;;;4.87;;
6665;SDS011;3369;49.906;8.598;2023-08-01T06:27:50;8.50;;;5.30;;
6665;SDS011;3369;49.906;8.598;2023-08-01T06:30:15;6.57;;;4.53;;
6665;SDS011;3369;49.906;8.598;2023-08-01T06:32:41;7.27;;;4.80;;
6665;SDS011;3369;49.906;8.598;2023-08-01T06:35:07;6.53;;;4.87;;
6665;SDS011;3369;49.906;8.598;2023-08-01T06:37:33;5.77;;;4.67;;
6665;SDS011;3369;49.906;8.598;2023-08-01T06:39:58;5.00;;;4.00;;
6665;SDS011;3369;49.906;8.598;2023-08-01T06:42:24;4.33;;;3.83;;
6665;SDS011;3369;49.906;8.598;2023-08-01T06:44:50;6.63;;;4.17;;
6665;SDS011;3369;49.906;8.598;2023-08-01T06:47:15;4.90;;;4.37;;
6665;SDS011;3369;49.906;8.598;2023-08-01T06:49:41;4.13;;;3.80;;
6665;SDS011;3369;49.906;8.598;2023-08-01T06:52:07;5.43;;;4.20;;
6665;SDS011;3369;49.906;8.598;2023-08-01T06:54:32;5.87;;;4.10;;
6665;SDS011;3369;49.906;8.598;2023-08-01T06:56:58;4.60;;;3.97;;
6665;SDS011;3369;49.906;8.598;2023-08-01T06:59:24;5.37;;;4.03;;
6665;SDS011;3369;49.906;8.598;2023-08-01T07:01:50;4.97;;;4.00;;
6665;SDS011;3369;49.906;8.598;2023-08-01T07:04:16;4.50;;;3.80;;
6665;SDS011;3369;49.906;8.598;2023-08-01T07:06:42;4.67;;;3.60;;
6665;SDS011;3369;49.906;8.598;2023-08-01T07:09:07;4.40;;;4.00;;
6665;SDS011;3369;49.906;8.598;2023-08-01T07:11:33;5.07;;;3.50;;
6665;SDS011;3369;49.906;8.598;2023-08-01T07:13:59;5.47;;;3.70;;
6665;SDS011;3369;49.906;8.598;2023-08-01T07:16:24;4.20;;;3.00;;
6665;SDS011;3369;49.906;8.598;2023-08-01T07:18:50;3.70;;;2.63;;
6665;SDS011;3369;49.906;8.598;2023-08-01T07:21:16;2.13;;;1.93;;
6665;SDS011;3369;49.906;8.598;2023-08-01T07:23:42;2.17;;;1.73;;
6665;SDS011;3369;49.906;8.598;2023-08-01T07:26:08;1.43;;;1.33;;
6665;SDS011;3369;49.906;8.598;2023-08-01T07:28:34;1.97;;;1.60;;
6665;SDS011;3369;49.906;8.598;2023-08-01T07:31:03;1.27;;;1.17;;
6665;SDS011;3369;49.906;8.598;2023-08-01T07:33:31;1.30;;;1.20;;
6665;SDS011;3369;49.906;8.598;2023-08-01T07:35:57;1.03;;;0.90;;
6665;SDS011;3369;49.906;8.598;2023-08-01T07:38:22;1.97;;;1.00;;
6665;SDS011;3369;49.906;8.598;2023-08-01T07:40:49;1.20;;;1.10;;
6665;SDS011;3369;49.906;8.598;2023-08-01T07:43:14;1.97;;;1.33;;
6665;SDS011;3369;49.906;8.598;2023-08-01T07:45:40;1.67;;;0.80;;
6665;SDS011;3369;49.906;8.598;2023-08-01T07:48:06;1.43;;;1.00;;
6665;SDS011;3369;49.906;8.598;2023-08-01T07:50:31;0.97;;;0.97;;
6665;SDS011;3369;49.906;8.598;2023-08-01T07:52:57;1.07;;;1.00;;
6665;SDS011;3369;49.906;8.598;2023-08-01T07:55:22;2.63;;;0.97;;
6665;SDS011;3369;49.906;8.598;2023-08-01T07:57:48;0.87;;;0.87;;
6665;SDS011;3369;49.906;8.598;2023-08-01T08:00:14;0.90;;;0.90;;
6665;SDS011;3369;49.906;8.598;2023-08-01T08:02:44;0.70;;;0.70;;
6665;SDS011;3369;49.906;8.598;2023-08-01T08:05:10;1.60;;;0.70;;
6665;SDS011;3369;49.906;8.598;2023-08-01T08:07:36;0.60;;;0.60;;
6665;SDS011;3369;49.906;8.598;2023-08-01T08:10:02;0.90;;;0.90;;
6665;SDS011;3369;49.906;8.598;2023-08-01T08:12:32;1.13;;;1.03;;
6665;SDS011;3369;49.906;8.598;2023-08-01T08:14:58;1.33;;;1.10;;
6665;SDS011;3369;49.906;8.598;2023-08-01T08:17:23;0.90;;;0.90;;
6665;SDS011;3369;49.906;8.598;2023-08-01T08:19:49;2.20;;;1.57;;
6665;SDS011;3369;49.906;8.598;2023-08-01T08:22:14;2.20;;;1.00;;
6665;SDS011;3369;49.906;8.598;2023-08-01T08:24:40;0.90;;;0.90;;
6665;SDS011;3369;49.906;8.598;2023-08-01T08:27:05;1.13;;;1.03;;
6665;SDS011;3369;49.906;8.598;2023-08-01T08:29:31;0.97;;;0.87;;
6665;SDS011;3369;49.906;8.598;2023-08-01T08:31:57;1.07;;;0.97;;
6665;SDS011;3369;49.906;8.598;2023-08-01T08:34:23;0.80;;;0.80;;
6665;SDS011;3369;49.906;8.598;2023-08-01T08:36:49;2.90;;;0.90;;
6665;SDS011;3369;49.906;8.598;2023-08-01T08:39:16;0.90;;;0.90;;
6665;SDS011;3369;49.906;8.598;2023-08-01T08:41:45;1.03;;;0.90;;
6665;SDS011;3369;49.906;8.598;2023-08-01T08:44:15;0.93;;;0.93;;
6665;SDS011;3369;49.906;8.598;2023-08-01T08:46:43;0.83;;;0.83;;
6665;SDS011;3369;49.906;8.598;2023-08-01T08:49:10;1.70;;;0.80;;
6665;SDS011;3369;49.906;8.598;2023-08-01T08:51:36;0.70;;;0.70;;
6665;SDS011;3369;49.906;8.598;2023-08-01T08:54:06;0.70;;;0.70;;
6665;SDS011;3369;49.906;8.598;2023-08-01T08:56:33;0.53;;;0.53;;
6665;SDS011;3369;49.906;8.598;2023-08-01T08:58:59;1.23;;;0.70;;
6665;SDS011;3369;49.906;8.598;2023-08-01T09:01:25;0.70;;;0.70;;
6665;SDS011;3369;49.906;8.598;2023-08-01T09:03:51;0.53;;;0.53;;
6665;SDS011;3369;49.906;8.598;2023-08-01T09:06:20;0.53;;;0.50;;
6665;SDS011;3369;49.906;8.598;2023-08-01T09:08:50;0.60;;;0.60;;
6665;SDS011;3369;49.906;8.598;2023-08-01T09:11:20;0.50;;;0.50;;
6665;SDS011;3369;49.906;8.598;2023-08-01T09:13:46;0.70;;;0.70;;
6665;SDS011;3369;49.906;8.598;2023-08-01T09:16:12;1.63;;;0.60;;
6665;SDS011;3369;49.906;8.598;2023-08-01T09:18:49;0.70;;;0.63;;
6665;SDS011;3369;49.906;8.598;2023-08-01T09:21:19;0.70;;;0.70;;
6665;SDS011;3369;49.906;8.598;2023-08-01T09:23:45;0.60;;;0.60;;
6665;SDS011;3369;49.906;8.598;2023-08-01T09:26:15;0.97;;;0.70;;
6665;SDS011;3369;49.906;8.598;2023-08-01T09:28:41;0.73;;;0.70;;
6665;SDS011;3369;49.906;8.598;2023-08-01T09:31:06;0.70;;;0.70;;
6665;SDS011;3369;49.906;8.598;2023-08-01T09:33:39;1.00;;;0.87;;
6665;SDS011;3369;49.906;8.598;2023-08-01T09:36:06;0.80;;;0.73;;
6665;SDS011;3369;49.906;8.598;2023-08-01T09:38:36;0.90;;;0.80;;
6665;SDS011;3369;49.906;8.598;2023-08-01T09:41:03;1.33;;;0.87;;
6665;SDS011;3369;49.906;8.598;2023-08-01T09:43:35;1.03;;;0.93;;
6665;SDS011;3369;49.906;8.598;2023-08-01T09:46:02;2.30;;;0.90;;
6665;SDS011;3369;49.906;8.598;2023-08-01T09:48:29;1.80;;;1.03;;
6665;SDS011;3369;49.906;8.598;2023-08-01T09:51:05;1.43;;;0.83;;
6665;SDS011;3369;49.906;8.598;2023-08-01T09:53:35;0.70;;;0.70;;
6665;SDS011;3369;49.906;8.598;2023-08-01T09:56:11;0.80;;;0.80;;
6665;SDS011;3369;49.906;8.598;2023-08-01T09:58:40;0.77;;;0.77;;
6665;SDS011;3369;49.906;8.598;2023-08-01T10:01:08;1.47;;;0.90;;
6665;SDS011;3369;49.906;8.598;2023-08-01T10:03:34;1.27;;;0.93;;
6665;SDS011;3369;49.906;8.598;2023-08-01T10:06:00;2.07;;;1.23;;
6665;SDS011;3369;49.906;8.598;2023-08-01T10:08:26;0.90;;;0.90;;
6665;SDS011;3369;49.906;8.598;2023-08-01T10:10:54;0.90;;;0.90;;
6665;SDS011;3369;49.906;8.598;2023-08-01T10:13:23;1.27;;;0.93;;
6665;SDS011;3369;49.906;8.598;2023-08-01T10:15:49;1.10;;;1.00;;
6665;SDS011;3369;49.906;8.598;2023-08-01T10:18:19;1.50;;;1.40;;
6665;SDS011;3369;49.906;8.598;2023-08-01T10:20:45;1.33;;;1.00;;
6665;SDS011;3369;49.906;8.598;2023-08-01T10:23:12;1.00;;;1.00;;
6665;SDS011;3369;49.906;8.598;2023-08-01T10:25:38;1.37;;;1.00;;
6665;SDS011;3369;49.906;8.598;2023-08-01T10:28:05;1.73;;;1.00;;
6665;SDS011;3369;49.906;8.598;2023-08-01T10:30:31;1.33;;;1.00;;
6665;SDS011;3369;49.906;8.598;2023-08-01T10:32:57;0.70;;;0.70;;
6665;SDS011;3369;49.906;8.598;2023-08-01T10:35:36;1.93;;;1.20;;
6665;SDS011;3369;49.906;8.598;2023-08-01T10:38:07;1.20;;;1.10;;
6665;SDS011;3369;49.906;8.598;2023-08-01T10:40:37;1.37;;;1.20;;
6665;SDS011;3369;49.906;8.598;2023-08-01T10:43:06;1.93;;;1.20;;
6665;SDS011;3369;49.906;8.598;2023-08-01T10:45:43;0.93;;;0.93;;
6665;SDS011;3369;49.906;8.598;2023-08-01T10:48:09;1.83;;;1.13;;
6665;SDS011;3369;49.906;8.598;2023-08-01T10:50:36;1.10;;;1.00;;
6665;SDS011;3369;49.906;8.598;2023-08-01T10:53:02;1.07;;;1.07;;
6665;SDS011;3369;49.906;8.598;2023-08-01T10:55:44;1.93;;;1.10;;
6665;SDS011;3369;49.906;8.598;2023-08-01T10:58:12;1.50;;;1.40;;
6665;SDS011;3369;49.906;8.598;2023-08-01T11:00:37;1.60;;;1.10;;
6665;SDS011;3369;49.906;8.598;2023-08-01T11:03:03;2.67;;;1.17;;
6665;SDS011;3369;49.906;8.598;2023-08-01T11:05:29;1.40;;;1.20;;
6665;SDS011;3369;49.906;8.598;2023-08-01T11:07:56;2.13;;;1.17;;
6665;SDS011;3369;49.906;8.598;2023-08-01T11:10:24;2.27;;;1.53;;
6665;SDS011;3369;49.906;8.598;2023-08-01T11:12:50;2.50;;;1.57;;
6665;SDS011;3369;49.906;8.598;2023-08-01T11:15:16;3.20;;;1.30;;
6665;SDS011;3369;49.906;8.598;2023-08-01T11:17:42;2.67;;;1.37;;
6665;SDS011;3369;49.906;8.598;2023-08-01T11:20:13;1.20;;;1.10;;
6665;SDS011;3369;49.906;8.598;2023-08-01T11:22:48;1.77;;;1.17;;
6665;SDS011;3369;49.906;8.598;2023-08-01T11:25:34;2.67;;;1.40;;
6665;SDS011;3369;49.906;8.598;2023-08-01T11:28:09;1.53;;;1.20;;
6665;SDS011;3369;49.906;8.598;2023-08-01T11:30:35;1.20;;;1.10;;
6665;SDS011;3369;49.906;8.598;2023-08-01T11:33:02;3.53;;;1.37;;
6665;SDS011;3369;49.906;8.598;2023-08-01T11:35:39;2.87;;;1.27;;
6665;SDS011;3369;49.906;8.598;2023-08-01T11:38:05;1.80;;;1.30;;
6665;SDS011;3369;49.906;8.598;2023-08-01T11:40:31;1.70;;;1.10;;
6665;SDS011;3369;49.906;8.598;2023-08-01T11:42:57;2.40;;;1.20;;
6665;SDS011;3369;49.906;8.598;2023-08-01T11:45:23;5.13;;;1.27;;
6665;SDS011;3369;49.906;8.598;2023-08-01T11:47:50;1.93;;;1.10;;
6665;SDS011;3369;49.906;8.598;2023-08-01T11:50:23;1.70;;;1.20;;
6665;SDS011;3369;49.906;8.598;2023-08-01T11:52:50;1.23;;;1.00;;
6665;SDS011;3369;49.906;8.598;2023-08-01T11:55:20;1.90;;;1.00;;
6665;SDS011;3369;49.906;8.598;2023-08-01T11:57:56;1.57;;;1.17;;
6665;SDS011;3369;49.906;8.598;2023-08-01T12:00:27;3.17;;;1.10;;
6665;SDS011;3369;49.906;8.598;2023-08-01T12:03:06;1.83;;;1.10;;
6665;SDS011;3369;49.906;8.598;2023-08-01T12:05:40;1.07;;;0.90;;
6665;SDS011;3369;49.906;8.598;2023-08-01T12:08:12;1.77;;;1.17;;
6665;SDS011;3369;49.906;8.598;2023-08-01T12:10:48;1.10;;;0.90;;
6665;SDS011;3369;49.906;8.598;2023-08-01T12:13:20;2.03;;;1.20;;
6665;SDS011;3369;49.906;8.598;2023-08-01T12:15:53;1.73;;;1.20;;
6665;SDS011;3369;49.906;8.598;2023-08-01T12:18:24;2.83;;;1.40;;
6665;SDS011;3369;49.906;8.598;2023-08-01T12:20:54;1.87;;;1.33;;
6665;SDS011;3369;49.906;8.598;2023-08-01T12:23:20;1.17;;;1.07;;
6665;SDS011;3369;49.906;8.598;2023-08-01T12:25:46;1.53;;;1.00;;
6665;SDS011;3369;49.906;8.598;2023-08-01T12:28:15;2.40;;;1.20;;
6665;SDS011;3369;49.906;8.598;2023-08-01T12:30:41;2.13;;;1.30;;
6665;SDS011;3369;49.906;8.598;2023-08-01T12:33:08;2.03;;;1.17;;
6665;SDS011;3369;49.906;8.598;2023-08-01T12:35:34;1.67;;;1.27;;
6665;SDS011;3369;49.906;8.598;2023-08-01T12:38:03;1.30;;;1.20;;
6665;SDS011;3369;49.906;8.598;2023-08-01T12:40:29;1.10;;;1.00;;
6665;SDS011;3369;49.906;8.598;2023-08-01T12:42:55;2.77;;;1.20;;
6665;SDS011;3369;49.906;8.598;2023-08-01T12:45:20;1.20;;;0.93;;
6665;SDS011;3369;49.906;8.598;2023-08-01T12:47:46;2.13;;;1.20;;
6665;SDS011;3369;49.906;8.598;2023-08-01T12:50:13;2.10;;;1.23;;
6665;SDS011;3369;49.906;8.598;2023-08-01T12:52:39;1.57;;;1.20;;
6665;SDS011;3369;49.906;8.598;2023-08-01T12:55:04;1.83;;;1.20;;
6665;SDS011;3369;49.906;8.598;2023-08-01T12:57:30;3.13;;;1.30;;
6665;SDS011;3369;49.906;8.598;2023-08-01T12:59:56;2.50;;;1.10;;
6665;SDS011;3369;49.906;8.598;2023-08-01T13:02:21;2.43;;;1.20;;
6665;SDS011;3369;49.906;8.598;2023-08-01T13:04:47;4.33;;;1.20;;
6665;SDS011;3369;49.906;8.598;2023-08-01T13:07:12;1.50;;;1.20;;
6665;SDS011;3369;49.906;8.598;2023-08-01T13:09:38;2.00;;;1.10;;
6665;SDS011;3369;49.906;8.598;2023-08-01T13:12:04;1.70;;;0.93;;
6665;SDS011;3369;49.906;8.598;2023-08-01T13:14:31;3.43;;;1.20;;
6665;SDS011;3369;49.906;8.598;2023-08-01T13:16:57;1.73;;;1.30;;
6665;SDS011;3369;49.906;8.598;2023-08-01T13:19:24;1.70;;;1.20;;
6665;SDS011;3369;49.906;8.598;2023-08-01T13:21:50;1.80;;;1.17;;
6665;SDS011;3369;49.906;8.598;2023-08-01T13:24:16;1.53;;;1.20;;
6665;SDS011;3369;49.906;8.598;2023-08-01T13:26:41;3.13;;;1.47;;
6665;SDS011;3369;49.906;8.598;2023-08-01T13:29:07;1.37;;;0.90;;
6665;SDS011;3369;49.906;8.598;2023-08-01T13:31:33;1.87;;;1.00;;
6665;SDS011;3369;49.906;8.598;2023-08-01T13:33:58;1.17;;;1.10;;
6665;SDS011;3369;49.906;8.598;2023-08-01T13:36:24;1.97;;;1.30;;
6665;SDS011;3369;49.906;8.598;2023-08-01T13:38:50;1.43;;;1.20;;
6665;SDS011;3369;49.906;8.598;2023-08-01T13:41:16;2.97;;;1.23;;
6665;SDS011;3369;49.906;8.598;2023-08-01T13:43:42;2.77;;;1.10;;
6665;SDS011;3369;49.906;8.598;2023-08-01T13:46:11;1.40;;;1.30;;
6665;SDS011;3369;49.906;8.598;2023-08-01T13:48:38;1.23;;;1.10;;
6665;SDS011;3369;49.906;8.598;2023-08-01T13:51:04;3.10;;;1.40;;
6665;SDS011;3369;49.906;8.598;2023-08-01T13:53:30;1.83;;;1.43;;
6665;SDS011;3369;49.906;8.598;2023-08-01T13:55:55;1.70;;;1.60;;
6665;SDS011;3369;49.906;8.598;2023-08-01T13:58:21;1.87;;;1.20;;
6665;SDS011;3369;49.906;8.598;2023-08-01T14:00:46;3.30;;;1.13;;
6665;SDS011;3369;49.906;8.598;2023-08-01T14:03:12;2.27;;;1.57;;
6665;SDS011;3369;49.906;8.598;2023-08-01T14:05:38;1.57;;;1.10;;
6665;SDS011;3369;49.906;8.598;2023-08-01T14:08:03;3.73;;;1.40;;
6665;SDS011;3369;49.906;8.598;2023-08-01T14:10:30;1.70;;;1.30;;
6665;SDS011;3369;49.906;8.598;2023-08-01T14:12:55;2.17;;;1.50;;
6665;SDS011;3369;49.906;8.598;2023-08-01T14:15:21;2.30;;;1.60;;
6665;SDS011;3369;49.906;8.598;2023-08-01T14:17:47;2.17;;;1.43;;
6665;SDS011;3369;49.906;8.598;2023-08-01T14:20:12;4.90;;;2.10;;
6665;SDS011;3369;49.906;8.598;2023-08-01T14:22:38;3.03;;;1.90;;
6665;SDS011;3369;49.906;8.598;2023-08-01T14:25:06;3.17;;;1.73;;
6665;SDS011;3369;49.906;8.598;2023-08-01T14:27:32;3.13;;;1.47;;
6665;SDS011;3369;49.906;8.598;2023-08-01T14:29:58;4.63;;;1.50;;
6665;SDS011;3369;49.906;8.598;2023-08-01T14:32:23;1.40;;;1.10;;
6665;SDS011;3369;49.906;8.598;2023-08-01T14:34:49;1.60;;;1.50;;
6665;SDS011;3369;49.906;8.598;2023-08-01T14:37:14;2.23;;;1.03;;
6665;SDS011;3369;49.906;8.598;2023-08-01T14:39:40;4.07;;;1.40;;
6665;SDS011;3369;49.906;8.598;2023-08-01T14:42:06;1.23;;;1.13;;
6665;SDS011;3369;49.906;8.598;2023-08-01T14:44:31;3.43;;;1.30;;
6665;SDS011;3369;49.906;8.598;2023-08-01T14:46:57;2.47;;;1.70;;
6665;SDS011;3369;49.906;8.598;2023-08-01T14:49:23;2.47;;;1.50;;
6665;SDS011;3369;49.906;8.598;2023-08-01T14:51:52;2.07;;;1.53;;
6665;SDS011;3369;49.906;8.598;2023-08-01T14:54:18;1.73;;;1.43;;
6665;SDS011;3369;49.906;8.598;2023-08-01T14:56:44;3.13;;;1.50;;
6665;SDS011;3369;49.906;8.598;2023-08-01T14:59:09;3.13;;;1.90;;
6665;SDS011;3369;49.906;8.598;2023-08-01T15:01:35;2.80;;;1.73;;
6665;SDS011;3369;49.906;8.598;2023-08-01T15:04:00;2.97;;;1.60;;
6665;SDS011;3369;49.906;8.598;2023-08-01T15:06:26;3.43;;;1.97;;
6665;SDS011;3369;49.906;8.598;2023-08-01T15:08:52;3.53;;;1.93;;
6665;SDS011;3369;49.906;8.598;2023-08-01T15:11:18;3.47;;;1.60;;
6665;SDS011;3369;49.906;8.598;2023-08-01T15:13:43;1.50;;;1.40;;